sensor_id;sensor_type;location;lat;lon;timestamp;P1;durP1;ratioP1;P2;durP2;ratioP2
51724;SDS011;37801;53.224;6.552;2023-08-21T00:00:08;4.85;;;1.65;;
51724;SDS011;37801;53.224;6.552;2023-08-21T00:02:35;5.68;;;1.73;;
51724;SDS011;37801;53.224;6.552;2023-08-21T00:05:01;5.00;;;2.03;;
51724;SDS011;37801;53.224;6.552;2023-08-21T00:07:27;5.72;;;2.40;;
51724;SDS011;37801;53.224;6.552;2023-08-21T00:09:53;6.22;;;1.90;;
51724;SDS011;37801;53.224;6.552;2023-08-21T00:12:19;5.90;;;2.10;;
51724;SDS011;37801;53.224;6.552;2023-08-21T00:14:45;5.50;;;2.00;;
51724;SDS011;37801;53.224;6.552;2023-08-21T00:17:11;6.07;;;2.47;;
51724;SDS011;37801;53.224;6.552;2023-08-21T00:19:38;5.90;;;2.10;;
51724;SDS011;37801;53.224;6.552;2023-08-21T00:22:04;5.50;;;2.05;;
51724;SDS011;37801;53.224;6.552;2023-08-21T00:24:30;4.65;;;1.92;;
51724;SDS011;37801;53.224;6.552;2023-08-21T00:26:56;6.20;;;2.25;;
51724;SDS011;37801;53.224;6.552;2023-08-21T00:29:22;5.95;;;2.05;;
51724;SDS011;37801;53.224;6.552;2023-08-21T00:31:48;5.68;;;2.05;;
51724;SDS011;37801;53.224;6.552;2023-08-21T00:34:14;8.75;;;2.40;;
51724;SDS011;37801;53.224;6.552;2023-08-21T00:36:41;5.72;;;2.10;;
51724;SDS011;37801;53.224;6.552;2023-08-21T00:39:07;4.53;;;2.20;;
51724;SDS011;37801;53.224;6.552;2023-08-21T00:41:33;6.82;;;2.22;;
51724;SDS011;37801;53.224;6.552;2023-08-21T00:43:59;7.28;;;2.20;;
51724;SDS011;37801;53.224;6.552;2023-08-21T00:46:25;5.43;;;2.35;;
51724;SDS011;37801;53.224;6.552;2023-08-21T00:48:52;6.18;;;2.13;;
51724;SDS011;37801;53.224;6.552;2023-08-21T00:51:18;6.05;;;2.00;;
51724;SDS011;37801;53.224;6.552;2023-08-21T00:53:44;4.75;;;2.30;;
51724;SDS011;37801;53.224;6.552;2023-08-21T00:56:10;5.80;;;2.58;;
51724;SDS011;37801;53.224;6.552;2023-08-21T00:58:36;5.28;;;2.20;;
51724;SDS011;37801;53.224;6.552;2023-08-21T01:01:02;6.00;;;2.50;;
51724;SDS011;37801;53.224;6.552;2023-08-21T01:03:30;6.68;;;2.40;;
51724;SDS011;37801;53.224;6.552;2023-08-21T01:05:56;6.80;;;2.30;;
51724;SDS011;37801;53.224;6.552;2023-08-21T01:08:28;5.82;;;2.35;;
51724;SDS011;37801;53.224;6.552;2023-08-21T01:13:24;5.15;;;2.20;;
51724;SDS011;37801;53.224;6.552;2023-08-21T01:15:53;5.22;;;1.90;;
51724;SDS011;37801;53.224;6.552;2023-08-21T01:18:20;5.53;;;2.03;;
51724;SDS011;37801;53.224;6.552;2023-08-21T01:20:46;9.63;;;2.45;;
51724;SDS011;37801;53.224;6.552;2023-08-21T01:23:29;5.70;;;2.30;;
51724;SDS011;37801;53.224;6.552;2023-08-21T01:25:55;4.10;;;2.10;;
51724;SDS011;37801;53.224;6.552;2023-08-21T01:28:22;6.18;;;2.22;;
51724;SDS011;37801;53.224;6.552;2023-08-21T01:30:48;8.75;;;2.45;;
51724;SDS011;37801;53.224;6.552;2023-08-21T01:33:16;5.45;;;2.22;;
51724;SDS011;37801;53.224;6.552;2023-08-21T01:35:43;5.60;;;2.00;;
51724;SDS011;37801;53.224;6.552;2023-08-21T01:38:09;4.93;;;2.03;;
51724;SDS011;37801;53.224;6.552;2023-08-21T01:40:35;4.55;;;2.03;;
51724;SDS011;37801;53.224;6.552;2023-08-21T01:43:01;5.97;;;1.95;;
51724;SDS011;37801;53.224;6.552;2023-08-21T01:45:28;4.47;;;2.10;;
51724;SDS011;37801;53.224;6.552;2023-08-21T01:47:54;5.40;;;2.20;;
51724;SDS011;37801;53.224;6.552;2023-08-21T01:50:20;5.97;;;2.03;;
51724;SDS011;37801;53.224;6.552;2023-08-21T01:52:46;4.55;;;1.92;;
51724;SDS011;37801;53.224;6.552;2023-08-21T01:55:12;4.85;;;2.30;;
51724;SDS011;37801;53.224;6.552;2023-08-21T01:57:38;5.22;;;2.10;;
51724;SDS011;37801;53.224;6.552;2023-08-21T02:00:05;7.00;;;2.63;;
51724;SDS011;37801;53.224;6.552;2023-08-21T02:02:32;6.72;;;2.53;;
51724;SDS011;37801;53.224;6.552;2023-08-21T02:04:58;4.15;;;1.83;;
51724;SDS011;37801;53.224;6.552;2023-08-21T02:07:24;5.75;;;2.00;;
51724;SDS011;37801;53.224;6.552;2023-08-21T02:09:50;4.22;;;1.83;;
51724;SDS011;37801;53.224;6.552;2023-08-21T02:12:16;5.35;;;2.20;;
51724;SDS011;37801;53.224;6.552;2023-08-21T02:14:43;4.95;;;2.25;;
51724;SDS011;37801;53.224;6.552;2023-08-21T02:17:09;6.35;;;2.22;;
51724;SDS011;37801;53.224;6.552;2023-08-21T02:19:35;4.57;;;2.28;;
51724;SDS011;37801;53.224;6.552;2023-08-21T02:22:01;7.72;;;2.70;;
51724;SDS011;37801;53.224;6.552;2023-08-21T02:24:28;4.07;;;2.10;;
51724;SDS011;37801;53.224;6.552;2023-08-21T02:26:54;4.47;;;2.10;;
51724;SDS011;37801;53.224;6.552;2023-08-21T02:29:20;3.20;;;2.03;;
51724;SDS011;37801;53.224;6.552;2023-08-21T02:31:46;4.53;;;1.80;;
51724;SDS011;37801;53.224;6.552;2023-08-21T02:34:12;4.43;;;2.08;;
51724;SDS011;37801;53.224;6.552;2023-08-21T02:36:38;4.03;;;1.98;;
51724;SDS011;37801;53.224;6.552;2023-08-21T02:39:04;5.88;;;1.88;;
51724;SDS011;37801;53.224;6.552;2023-08-21T02:41:31;4.07;;;1.88;;
51724;SDS011;37801;53.224;6.552;2023-08-21T02:43:57;6.10;;;1.98;;
51724;SDS011;37801;53.224;6.552;2023-08-21T02:46:23;5.50;;;1.90;;
51724;SDS011;37801;53.224;6.552;2023-08-21T02:48:49;3.35;;;1.60;;
51724;SDS011;37801;53.224;6.552;2023-08-21T02:51:15;5.15;;;1.92;;
51724;SDS011;37801;53.224;6.552;2023-08-21T02:53:41;4.85;;;1.77;;
51724;SDS011;37801;53.224;6.552;2023-08-21T02:56:07;5.50;;;2.13;;
51724;SDS011;37801;53.224;6.552;2023-08-21T02:58:34;5.38;;;1.98;;
51724;SDS011;37801;53.224;6.552;2023-08-21T03:01:00;5.07;;;2.03;;
51724;SDS011;37801;53.224;6.552;2023-08-21T03:03:26;4.47;;;2.10;;
51724;SDS011;37801;53.224;6.552;2023-08-21T03:05:52;3.53;;;1.90;;
51724;SDS011;37801;53.224;6.552;2023-08-21T03:08:18;3.92;;;1.63;;
51724;SDS011;37801;53.224;6.552;2023-08-21T03:10:44;7.43;;;2.47;;
51724;SDS011;37801;53.224;6.552;2023-08-21T03:13:10;4.30;;;1.80;;
51724;SDS011;37801;53.224;6.552;2023-08-21T03:15:36;4.90;;;2.00;;
51724;SDS011;37801;53.224;6.552;2023-08-21T03:18:03;4.00;;;2.00;;
51724;SDS011;37801;53.224;6.552;2023-08-21T03:20:29;5.90;;;2.15;;
51724;SDS011;37801;53.224;6.552;2023-08-21T03:22:55;5.70;;;2.28;;
51724;SDS011;37801;53.224;6.552;2023-08-21T03:25:21;3.92;;;2.28;;
51724;SDS011;37801;53.224;6.552;2023-08-21T03:27:47;5.70;;;2.10;;
51724;SDS011;37801;53.224;6.552;2023-08-21T03:30:14;3.90;;;2.03;;
51724;SDS011;37801;53.224;6.552;2023-08-21T03:32:40;5.10;;;1.90;;
51724;SDS011;37801;53.224;6.552;2023-08-21T03:35:07;4.93;;;2.05;;
51724;SDS011;37801;53.224;6.552;2023-08-21T03:37:33;4.03;;;2.20;;
51724;SDS011;37801;53.224;6.552;2023-08-21T03:39:59;5.38;;;2.30;;
51724;SDS011;37801;53.224;6.552;2023-08-21T03:42:25;4.38;;;2.38;;
51724;SDS011;37801;53.224;6.552;2023-08-21T03:44:51;5.95;;;2.42;;
51724;SDS011;37801;53.224;6.552;2023-08-21T03:47:17;6.05;;;2.63;;
51724;SDS011;37801;53.224;6.552;2023-08-21T03:49:44;5.28;;;2.38;;
51724;SDS011;37801;53.224;6.552;2023-08-21T03:52:10;5.82;;;2.30;;
51724;SDS011;37801;53.224;6.552;2023-08-21T03:54:36;6.32;;;2.70;;
51724;SDS011;37801;53.224;6.552;2023-08-21T03:57:02;4.78;;;2.38;;
51724;SDS011;37801;53.224;6.552;2023-08-21T03:59:28;6.03;;;2.38;;
51724;SDS011;37801;53.224;6.552;2023-08-21T04:01:55;5.72;;;3.05;;
51724;SDS011;37801;53.224;6.552;2023-08-21T04:04:21;4.88;;;2.45;;
51724;SDS011;37801;53.224;6.552;2023-08-21T04:06:47;7.13;;;2.55;;
51724;SDS011;37801;53.224;6.552;2023-08-21T04:09:13;6.30;;;2.90;;
51724;SDS011;37801;53.224;6.552;2023-08-21T04:11:39;5.93;;;2.80;;
51724;SDS011;37801;53.224;6.552;2023-08-21T04:14:06;7.03;;;2.92;;
51724;SDS011;37801;53.224;6.552;2023-08-21T04:16:32;6.82;;;2.78;;
51724;SDS011;37801;53.224;6.552;2023-08-21T04:18:58;7.15;;;2.97;;
51724;SDS011;37801;53.224;6.552;2023-08-21T04:21:24;6.82;;;3.25;;
51724;SDS011;37801;53.224;6.552;2023-08-21T04:23:50;6.43;;;2.80;;
51724;SDS011;37801;53.224;6.552;2023-08-21T04:26:16;6.22;;;2.38;;
51724;SDS011;37801;53.224;6.552;2023-08-21T04:28:43;4.18;;;2.60;;
51724;SDS011;37801;53.224;6.552;2023-08-21T04:31:09;6.30;;;2.60;;
51724;SDS011;37801;53.224;6.552;2023-08-21T04:33:35;7.13;;;3.10;;
51724;SDS011;37801;53.224;6.552;2023-08-21T04:36:01;6.63;;;2.60;;
51724;SDS011;37801;53.224;6.552;2023-08-21T04:38:27;6.47;;;2.60;;
51724;SDS011;37801;53.224;6.552;2023-08-21T04:40:53;6.13;;;2.72;;
51724;SDS011;37801;53.224;6.552;2023-08-21T04:43:19;8.25;;;2.80;;
51724;SDS011;37801;53.224;6.552;2023-08-21T04:45:49;8.45;;;3.17;;
51724;SDS011;37801;53.224;6.552;2023-08-21T04:48:15;7.20;;;2.90;;
51724;SDS011;37801;53.224;6.552;2023-08-21T04:50:42;5.65;;;2.50;;
51724;SDS011;37801;53.224;6.552;2023-08-21T04:53:08;5.70;;;2.75;;
51724;SDS011;37801;53.224;6.552;2023-08-21T04:55:34;6.03;;;2.92;;
51724;SDS011;37801;53.224;6.552;2023-08-21T04:58:01;5.25;;;2.50;;
51724;SDS011;37801;53.224;6.552;2023-08-21T05:00:28;5.90;;;2.60;;
51724;SDS011;37801;53.224;6.552;2023-08-21T05:02:54;7.10;;;3.13;;
51724;SDS011;37801;53.224;6.552;2023-08-21T05:05:20;6.68;;;2.60;;
51724;SDS011;37801;53.224;6.552;2023-08-21T05:07:47;5.45;;;2.47;;
51724;SDS011;37801;53.224;6.552;2023-08-21T05:10:13;4.25;;;2.17;;
51724;SDS011;37801;53.224;6.552;2023-08-21T05:12:39;6.50;;;2.60;;
51724;SDS011;37801;53.224;6.552;2023-08-21T05:15:05;4.95;;;2.35;;
51724;SDS011;37801;53.224;6.552;2023-08-21T05:17:31;4.70;;;2.28;;
51724;SDS011;37801;53.224;6.552;2023-08-21T05:19:57;6.03;;;2.33;;
51724;SDS011;37801;53.224;6.552;2023-08-21T05:22:23;6.55;;;2.38;;
51724;SDS011;37801;53.224;6.552;2023-08-21T05:24:50;5.90;;;2.45;;
51724;SDS011;37801;53.224;6.552;2023-08-21T05:27:16;6.05;;;2.08;;
51724;SDS011;37801;53.224;6.552;2023-08-21T05:29:42;5.53;;;2.20;;
51724;SDS011;37801;53.224;6.552;2023-08-21T05:32:08;7.53;;;2.05;;
51724;SDS011;37801;53.224;6.552;2023-08-21T05:34:34;7.43;;;2.25;;
51724;SDS011;37801;53.224;6.552;2023-08-21T05:37:00;7.03;;;1.90;;
51724;SDS011;37801;53.224;6.552;2023-08-21T05:39:27;5.80;;;2.00;;
51724;SDS011;37801;53.224;6.552;2023-08-21T05:41:53;6.03;;;2.17;;
51724;SDS011;37801;53.224;6.552;2023-08-21T05:44:20;5.40;;;2.15;;
51724;SDS011;37801;53.224;6.552;2023-08-21T05:46:46;3.38;;;2.00;;
51724;SDS011;37801;53.224;6.552;2023-08-21T05:49:12;5.47;;;2.08;;
51724;SDS011;37801;53.224;6.552;2023-08-21T05:51:38;5.07;;;1.90;;
51724;SDS011;37801;53.224;6.552;2023-08-21T05:54:04;5.35;;;1.73;;
51724;SDS011;37801;53.224;6.552;2023-08-21T05:56:30;6.47;;;1.70;;
51724;SDS011;37801;53.224;6.552;2023-08-21T05:58:56;6.03;;;2.25;;
51724;SDS011;37801;53.224;6.552;2023-08-21T06:01:23;6.03;;;1.85;;
51724;SDS011;37801;53.224;6.552;2023-08-21T06:03:49;4.50;;;1.70;;
51724;SDS011;37801;53.224;6.552;2023-08-21T06:06:15;4.32;;;1.70;;
51724;SDS011;37801;53.224;6.552;2023-08-21T06:08:41;6.88;;;2.20;;
51724;SDS011;37801;53.224;6.552;2023-08-21T06:11:07;7.03;;;1.70;;
51724;SDS011;37801;53.224;6.552;2023-08-21T06:13:33;3.30;;;1.52;;
51724;SDS011;37801;53.224;6.552;2023-08-21T06:15:59;3.70;;;1.60;;
51724;SDS011;37801;53.224;6.552;2023-08-21T06:18:26;5.05;;;1.80;;
51724;SDS011;37801;53.224;6.552;2023-08-21T06:20:52;6.45;;;1.80;;
51724;SDS011;37801;53.224;6.552;2023-08-21T06:23:19;6.20;;;2.05;;
51724;SDS011;37801;53.224;6.552;2023-08-21T06:25:47;3.60;;;1.65;;
51724;SDS011;37801;53.224;6.552;2023-08-21T06:28:13;4.32;;;1.85;;
51724;SDS011;37801;53.224;6.552;2023-08-21T06:30:39;5.80;;;1.63;;
51724;SDS011;37801;53.224;6.552;2023-08-21T06:33:05;6.65;;;1.90;;
51724;SDS011;37801;53.224;6.552;2023-08-21T06:35:31;5.78;;;1.63;;
51724;SDS011;37801;53.224;6.552;2023-08-21T06:37:58;5.70;;;1.52;;
51724;SDS011;37801;53.224;6.552;2023-08-21T06:40:44;7.63;;;2.13;;
51724;SDS011;37801;53.224;6.552;2023-08-21T06:43:31;7.30;;;2.20;;
51724;SDS011;37801;53.224;6.552;2023-08-21T08:15:21;3.03;;;1.27;;
51724;SDS011;37801;53.224;6.552;2023-08-21T08:17:47;5.15;;;1.40;;
51724;SDS011;37801;53.224;6.552;2023-08-21T08:20:18;4.43;;;1.20;;
51724;SDS011;37801;53.224;6.552;2023-08-21T08:22:44;4.88;;;1.80;;
51724;SDS011;37801;53.224;6.552;2023-08-21T08:25:13;6.25;;;1.65;;
51724;SDS011;37801;53.224;6.552;2023-08-21T08:27:47;6.03;;;1.42;;
51724;SDS011;37801;53.224;6.552;2023-08-21T08:30:14;6.25;;;1.60;;
51724;SDS011;37801;53.224;6.552;2023-08-21T08:32:42;4.72;;;1.45;;
51724;SDS011;37801;53.224;6.552;2023-08-21T08:35:14;4.07;;;1.38;;
51724;SDS011;37801;53.224;6.552;2023-08-21T08:37:43;4.30;;;1.58;;
51724;SDS011;37801;53.224;6.552;2023-08-21T08:40:10;5.30;;;1.33;;
51724;SDS011;37801;53.224;6.552;2023-08-21T08:42:36;6.88;;;1.80;;
51724;SDS011;37801;53.224;6.552;2023-08-21T08:45:03;5.97;;;1.63;;
51724;SDS011;37801;53.224;6.552;2023-08-21T08:47:31;6.00;;;1.40;;
51724;SDS011;37801;53.224;6.552;2023-08-21T08:49:58;2.58;;;1.17;;
51724;SDS011;37801;53.224;6.552;2023-08-21T08:52:26;4.35;;;1.25;;
51724;SDS011;37801;53.224;6.552;2023-08-21T08:54:53;4.60;;;1.30;;
51724;SDS011;37801;53.224;6.552;2023-08-21T08:57:20;4.07;;;1.33;;
51724;SDS011;37801;53.224;6.552;2023-08-21T08:59:46;2.20;;;1.17;;
51724;SDS011;37801;53.224;6.552;2023-08-21T09:02:15;4.45;;;1.10;;
51724;SDS011;37801;53.224;6.552;2023-08-21T09:04:44;4.68;;;1.23;;
51724;SDS011;37801;53.224;6.552;2023-08-21T09:07:13;2.97;;;1.10;;
51724;SDS011;37801;53.224;6.552;2023-08-21T09:09:46;3.42;;;1.23;;
51724;SDS011;37801;53.224;6.552;2023-08-21T09:12:14;4.85;;;1.25;;
51724;SDS011;37801;53.224;6.552;2023-08-21T09:14:47;2.75;;;1.08;;
51724;SDS011;37801;53.224;6.552;2023-08-21T09:17:55;3.88;;;1.20;;
51724;SDS011;37801;53.224;6.552;2023-08-21T09:20:21;3.25;;;1.27;;
51724;SDS011;37801;53.224;6.552;2023-08-21T09:22:54;3.38;;;1.20;;
51724;SDS011;37801;53.224;6.552;2023-08-21T09:25:45;3.00;;;1.20;;
51724;SDS011;37801;53.224;6.552;2023-08-21T09:28:37;5.07;;;1.20;;
51724;SDS011;37801;53.224;6.552;2023-08-21T09:31:24;4.20;;;1.10;;
51724;SDS011;37801;53.224;6.552;2023-08-21T09:34:10;2.70;;;0.93;;
51724;SDS011;37801;53.224;6.552;2023-08-21T09:37:13;5.63;;;1.10;;
51724;SDS011;37801;53.224;6.552;2023-08-21T09:40:00;3.20;;;1.20;;
51724;SDS011;37801;53.224;6.552;2023-08-21T11:05:21;2.67;;;1.20;;
51724;SDS011;37801;53.224;6.552;2023-08-21T11:10:29;6.53;;;1.70;;
51724;SDS011;37801;53.224;6.552;2023-08-21T11:13:06;4.05;;;1.50;;
51724;SDS011;37801;53.224;6.552;2023-08-21T11:15:32;3.53;;;1.48;;
51724;SDS011;37801;53.224;6.552;2023-08-21T11:18:00;5.65;;;1.33;;
51724;SDS011;37801;53.224;6.552;2023-08-21T11:20:30;5.15;;;1.42;;
51724;SDS011;37801;53.224;6.552;2023-08-21T14:32:25;3.53;;;0.95;;
51724;SDS011;37801;53.224;6.552;2023-08-21T14:35:09;2.15;;;0.60;;
51724;SDS011;37801;53.224;6.552;2023-08-21T14:37:59;2.72;;;0.73;;
51724;SDS011;37801;53.224;6.552;2023-08-21T14:40:37;3.58;;;0.90;;
51724;SDS011;37801;53.224;6.552;2023-08-21T14:43:03;2.03;;;0.70;;
51724;SDS011;37801;53.224;6.552;2023-08-21T14:48:16;2.67;;;0.88;;
51724;SDS011;37801;53.224;6.552;2023-08-21T16:01:57;4.95;;;1.45;;
51724;SDS011;37801;53.224;6.552;2023-08-21T16:04:23;5.38;;;1.60;;
51724;SDS011;37801;53.224;6.552;2023-08-21T17:45:56;6.03;;;2.17;;
51724;SDS011;37801;53.224;6.552;2023-08-21T17:48:58;6.85;;;2.17;;
51724;SDS011;37801;53.224;6.552;2023-08-21T17:51:25;6.80;;;2.40;;
51724;SDS011;37801;53.224;6.552;2023-08-21T17:53:51;4.85;;;1.90;;
51724;SDS011;37801;53.224;6.552;2023-08-21T17:56:17;3.85;;;1.75;;
51724;SDS011;37801;53.224;6.552;2023-08-21T17:58:44;6.25;;;2.05;;
51724;SDS011;37801;53.224;6.552;2023-08-21T18:01:10;3.40;;;1.60;;
51724;SDS011;37801;53.224;6.552;2023-08-21T18:03:36;6.43;;;1.90;;
51724;SDS011;37801;53.224;6.552;2023-08-21T18:06:04;5.22;;;2.25;;
51724;SDS011;37801;53.224;6.552;2023-08-21T18:08:34;7.32;;;2.30;;
51724;SDS011;37801;53.224;6.552;2023-08-21T18:11:00;5.38;;;2.20;;
51724;SDS011;37801;53.224;6.552;2023-08-21T18:13:29;6.95;;;2.38;;
51724;SDS011;37801;53.224;6.552;2023-08-21T18:15:58;6.63;;;2.85;;
51724;SDS011;37801;53.224;6.552;2023-08-21T18:18:24;4.63;;;2.20;;
51724;SDS011;37801;53.224;6.552;2023-08-21T18:20:52;6.47;;;2.25;;
51724;SDS011;37801;53.224;6.552;2023-08-21T18:23:23;8.85;;;2.90;;
51724;SDS011;37801;53.224;6.552;2023-08-21T18:25:49;6.53;;;2.90;;
51724;SDS011;37801;53.224;6.552;2023-08-21T18:28:19;5.45;;;2.47;;
51724;SDS011;37801;53.224;6.552;2023-08-21T18:30:52;5.97;;;2.53;;
51724;SDS011;37801;53.224;6.552;2023-08-21T18:33:19;6.97;;;2.70;;
51724;SDS011;37801;53.224;6.552;2023-08-21T18:35:50;7.03;;;2.72;;
51724;SDS011;37801;53.224;6.552;2023-08-21T18:38:17;6.28;;;2.75;;
51724;SDS011;37801;53.224;6.552;2023-08-21T18:40:43;6.53;;;2.55;;
51724;SDS011;37801;53.224;6.552;2023-08-21T18:43:10;6.30;;;2.83;;
51724;SDS011;37801;53.224;6.552;2023-08-21T18:45:37;5.38;;;2.97;;
51724;SDS011;37801;53.224;6.552;2023-08-21T18:48:04;9.05;;;3.47;;
51724;SDS011;37801;53.224;6.552;2023-08-21T18:50:34;9.55;;;3.85;;
51724;SDS011;37801;53.224;6.552;2023-08-21T18:53:01;8.40;;;3.63;;
51724;SDS011;37801;53.224;6.552;2023-08-21T18:55:28;7.45;;;3.45;;
51724;SDS011;37801;53.224;6.552;2023-08-21T18:57:55;7.47;;;3.28;;
51724;SDS011;37801;53.224;6.552;2023-08-21T19:00:21;5.38;;;3.03;;
51724;SDS011;37801;53.224;6.552;2023-08-21T19:02:51;7.18;;;3.35;;
51724;SDS011;37801;53.224;6.552;2023-08-21T19:05:18;8.30;;;3.42;;
51724;SDS011;37801;53.224;6.552;2023-08-21T19:07:45;5.47;;;2.97;;
51724;SDS011;37801;53.224;6.552;2023-08-21T19:10:15;6.68;;;3.40;;
51724;SDS011;37801;53.224;6.552;2023-08-21T19:12:41;6.45;;;3.10;;
51724;SDS011;37801;53.224;6.552;2023-08-21T19:15:08;7.00;;;3.25;;
51724;SDS011;37801;53.224;6.552;2023-08-21T19:17:46;7.70;;;3.28;;
51724;SDS011;37801;53.224;6.552;2023-08-21T19:20:15;6.85;;;2.80;;
51724;SDS011;37801;53.224;6.552;2023-08-21T19:22:41;7.38;;;2.47;;
51724;SDS011;37801;53.224;6.552;2023-08-21T19:25:10;5.72;;;3.00;;
51724;SDS011;37801;53.224;6.552;2023-08-21T19:27:39;3.75;;;2.28;;
51724;SDS011;37801;53.224;6.552;2023-08-21T19:30:06;6.88;;;3.00;;
51724;SDS011;37801;53.224;6.552;2023-08-21T19:32:32;3.78;;;2.45;;
51724;SDS011;37801;53.224;6.552;2023-08-21T19:35:02;4.00;;;2.20;;
51724;SDS011;37801;53.224;6.552;2023-08-21T19:37:33;3.58;;;2.17;;
51724;SDS011;37801;53.224;6.552;2023-08-21T19:39:59;5.00;;;1.98;;
51724;SDS011;37801;53.224;6.552;2023-08-21T19:42:30;3.67;;;2.20;;
51724;SDS011;37801;53.224;6.552;2023-08-21T19:44:56;6.07;;;2.40;;
51724;SDS011;37801;53.224;6.552;2023-08-21T19:47:23;4.15;;;2.33;;
51724;SDS011;37801;53.224;6.552;2023-08-21T19:49:50;3.85;;;2.35;;
51724;SDS011;37801;53.224;6.552;2023-08-21T19:52:19;5.63;;;2.33;;
51724;SDS011;37801;53.224;6.552;2023-08-21T19:54:45;4.53;;;2.60;;
51724;SDS011;37801;53.224;6.552;2023-08-21T19:57:13;6.25;;;3.00;;
51724;SDS011;37801;53.224;6.552;2023-08-21T19:59:39;5.35;;;2.63;;
51724;SDS011;37801;53.224;6.552;2023-08-21T20:02:06;5.60;;;2.30;;
51724;SDS011;37801;53.224;6.552;2023-08-21T20:04:32;8.02;;;3.20;;
51724;SDS011;37801;53.224;6.552;2023-08-21T20:06:58;7.07;;;2.88;;
51724;SDS011;37801;53.224;6.552;2023-08-21T20:09:25;6.80;;;3.15;;
51724;SDS011;37801;53.224;6.552;2023-08-21T20:11:51;5.15;;;2.95;;
51724;SDS011;37801;53.224;6.552;2023-08-21T20:14:17;6.07;;;2.70;;
51724;SDS011;37801;53.224;6.552;2023-08-21T20:16:44;5.05;;;2.95;;
51724;SDS011;37801;53.224;6.552;2023-08-21T20:19:10;6.85;;;3.20;;
51724;SDS011;37801;53.224;6.552;2023-08-21T20:21:37;6.07;;;3.00;;
51724;SDS011;37801;53.224;6.552;2023-08-21T20:24:03;5.18;;;2.65;;
51724;SDS011;37801;53.224;6.552;2023-08-21T20:26:29;7.35;;;2.80;;
51724;SDS011;37801;53.224;6.552;2023-08-21T20:28:58;4.80;;;2.20;;
51724;SDS011;37801;53.224;6.552;2023-08-21T20:31:24;5.20;;;2.78;;
51724;SDS011;37801;53.224;6.552;2023-08-21T20:33:51;4.80;;;2.47;;
51724;SDS011;37801;53.224;6.552;2023-08-21T20:36:17;4.30;;;2.58;;
51724;SDS011;37801;53.224;6.552;2023-08-21T20:38:43;4.63;;;2.72;;
51724;SDS011;37801;53.224;6.552;2023-08-21T20:41:10;6.05;;;2.90;;
51724;SDS011;37801;53.224;6.552;2023-08-21T20:43:36;4.75;;;2.30;;
51724;SDS011;37801;53.224;6.552;2023-08-21T20:46:03;5.38;;;2.53;;
51724;SDS011;37801;53.224;6.552;2023-08-21T20:48:30;4.60;;;2.58;;
51724;SDS011;37801;53.224;6.552;2023-08-21T20:50:56;6.22;;;3.00;;
51724;SDS011;37801;53.224;6.552;2023-08-21T20:53:26;5.38;;;2.75;;
51724;SDS011;37801;53.224;6.552;2023-08-21T20:55:52;7.13;;;3.20;;
51724;SDS011;37801;53.224;6.552;2023-08-21T20:58:18;5.93;;;3.10;;
51724;SDS011;37801;53.224;6.552;2023-08-21T21:00:45;5.85;;;3.25;;
51724;SDS011;37801;53.224;6.552;2023-08-21T21:03:12;6.28;;;3.25;;
51724;SDS011;37801;53.224;6.552;2023-08-21T21:05:38;6.22;;;3.17;;
51724;SDS011;37801;53.224;6.552;2023-08-21T21:08:05;4.75;;;2.90;;
51724;SDS011;37801;53.224;6.552;2023-08-21T21:10:31;6.43;;;2.97;;
51724;SDS011;37801;53.224;6.552;2023-08-21T21:12:57;4.47;;;2.90;;
51724;SDS011;37801;53.224;6.552;2023-08-21T21:15:23;5.18;;;3.10;;
51724;SDS011;37801;53.224;6.552;2023-08-21T21:17:49;6.75;;;3.08;;
51724;SDS011;37801;53.224;6.552;2023-08-21T21:20:16;4.82;;;2.75;;
51724;SDS011;37801;53.224;6.552;2023-08-21T21:22:42;5.97;;;2.85;;
51724;SDS011;37801;53.224;6.552;2023-08-21T21:25:09;5.30;;;3.05;;
51724;SDS011;37801;53.224;6.552;2023-08-21T21:27:36;6.30;;;3.08;;
51724;SDS011;37801;53.224;6.552;2023-08-21T21:30:02;5.75;;;3.15;;
51724;SDS011;37801;53.224;6.552;2023-08-21T21:32:34;6.88;;;3.50;;
51724;SDS011;37801;53.224;6.552;2023-08-21T21:35:00;8.20;;;3.50;;
51724;SDS011;37801;53.224;6.552;2023-08-21T22:11:04;9.32;;;4.32;;
51724;SDS011;37801;53.224;6.552;2023-08-21T22:13:51;11.88;;;5.00;;
51724;SDS011;37801;53.224;6.552;2023-08-21T22:16:49;8.27;;;4.45;;
51724;SDS011;37801;53.224;6.552;2023-08-21T22:19:16;6.22;;;4.47;;
51724;SDS011;37801;53.224;6.552;2023-08-21T22:21:42;8.48;;;4.80;;
51724;SDS011;37801;53.224;6.552;2023-08-21T22:24:13;10.20;;;4.55;;
51724;SDS011;37801;53.224;6.552;2023-08-21T22:26:39;7.93;;;4.28;;
51724;SDS011;37801;53.224;6.552;2023-08-21T22:29:05;7.10;;;4.03;;
51724;SDS011;37801;53.224;6.552;2023-08-21T22:31:32;7.53;;;3.78;;
51724;SDS011;37801;53.224;6.552;2023-08-21T22:33:58;7.30;;;3.88;;
51724;SDS011;37801;53.224;6.552;2023-08-21T22:36:24;6.63;;;3.88;;
51724;SDS011;37801;53.224;6.552;2023-08-21T22:38:52;8.07;;;4.18;;
51724;SDS011;37801;53.224;6.552;2023-08-21T22:41:28;6.20;;;3.63;;
51724;SDS011;37801;53.224;6.552;2023-08-21T22:43:54;6.53;;;4.15;;
51724;SDS011;37801;53.224;6.552;2023-08-21T22:46:20;7.70;;;4.10;;
51724;SDS011;37801;53.224;6.552;2023-08-21T22:48:47;8.98;;;4.28;;
51724;SDS011;37801;53.224;6.552;2023-08-21T22:51:13;7.00;;;3.67;;
51724;SDS011;37801;53.224;6.552;2023-08-21T22:53:42;8.88;;;4.18;;
51724;SDS011;37801;53.224;6.552;2023-08-21T22:56:08;7.65;;;4.07;;
51724;SDS011;37801;53.224;6.552;2023-08-21T22:58:34;7.65;;;4.28;;
51724;SDS011;37801;53.224;6.552;2023-08-21T23:01:02;8.13;;;3.83;;
51724;SDS011;37801;53.224;6.552;2023-08-21T23:03:49;7.40;;;3.78;;
51724;SDS011;37801;53.224;6.552;2023-08-21T23:06:35;7.90;;;3.90;;
51724;SDS011;37801;53.224;6.552;2023-08-21T23:09:21;6.65;;;3.78;;
51724;SDS011;37801;53.224;6.552;2023-08-21T23:12:07;6.47;;;4.18;;
51724;SDS011;37801;53.224;6.552;2023-08-21T23:14:53;6.78;;;3.83;;
51724;SDS011;37801;53.224;6.552;2023-08-21T23:17:39;5.53;;;3.50;;
51724;SDS011;37801;53.224;6.552;2023-08-21T23:20:25;8.00;;;4.03;;
51724;SDS011;37801;53.224;6.552;2023-08-21T23:23:11;5.95;;;3.72;;
51724;SDS011;37801;53.224;6.552;2023-08-21T23:25:58;7.18;;;4.00;;
51724;SDS011;37801;53.224;6.552;2023-08-21T23:28:45;7.55;;;4.18;;
51724;SDS011;37801;53.224;6.552;2023-08-21T23:31:31;6.53;;;4.15;;
51724;SDS011;37801;53.224;6.552;2023-08-21T23:34:17;5.47;;;3.67;;
51724;SDS011;37801;53.224;6.552;2023-08-21T23:37:03;6.60;;;3.55;;
51724;SDS011;37801;53.224;6.552;2023-08-21T23:39:49;5.78;;;3.53;;
51724;SDS011;37801;53.224;6.552;2023-08-21T23:42:35;4.95;;;3.35;;
51724;SDS011;37801;53.224;6.552;2023-08-21T23:45:22;6.65;;;2.95;;
51724;SDS011;37801;53.224;6.552;2023-08-21T23:48:08;6.82;;;3.53;;
51724;SDS011;37801;53.224;6.552;2023-08-21T23:50:54;6.20;;;3.30;;
51724;SDS011;37801;53.224;6.552;2023-08-21T23:53:40;6.13;;;3.38;;
51724;SDS011;37801;53.224;6.552;2023-08-21T23:56:26;5.88;;;3.30;;
51724;SDS011;37801;53.224;6.552;2023-08-21T23:59:12;6.00;;;3.75;;
